sensor_id;sensor_type;location;lat;lon;timestamp;pressure;altitude;pressure_sealevel;temperature;humidity
47330;BME280;33060;50.178;7.570;2023-11-18T00:01:31;97804.75;;;3.40;100.00
47330;BME280;33060;50.178;7.570;2023-11-18T00:04:00;97799.56;;;3.68;100.00
47330;BME280;33060;50.178;7.570;2023-11-18T00:06:26;97792.56;;;3.69;100.00
47330;BME280;33060;50.178;7.570;2023-11-18T00:08:54;97792.91;;;3.58;100.00
47330;BME280;33060;50.178;7.570;2023-11-18T00:11:21;97794.09;;;3.76;100.00
47330;BME280;33060;50.178;7.570;2023-11-18T00:13:48;97788.94;;;3.75;100.00
47330;BME280;33060;50.178;7.570;2023-11-18T00:16:15;97793.81;;;3.85;100.00
47330;BME280;33060;50.178;7.570;2023-11-18T00:18:43;97797.75;;;3.71;100.00
47330;BME280;33060;50.178;7.570;2023-11-18T00:21:10;97796.88;;;3.70;100.00
47330;BME280;33060;50.178;7.570;2023-11-18T00:23:36;97790.94;;;3.66;100.00
47330;BME280;33060;50.178;7.570;2023-11-18T00:26:04;97788.53;;;3.59;100.00
47330;BME280;33060;50.178;7.570;2023-11-18T00:28:33;97792.28;;;3.78;100.00
47330;BME280;33060;50.178;7.570;2023-11-18T00:31:00;97787.31;;;3.71;100.00
47330;BME280;33060;50.178;7.570;2023-11-18T00:33:27;97789.84;;;3.72;100.00
47330;BME280;33060;50.178;7.570;2023-11-18T00:35:54;97793.59;;;3.35;100.00
47330;BME280;33060;50.178;7.570;2023-11-18T00:38:20;97804.25;;;3.28;100.00
47330;BME280;33060;50.178;7.570;2023-11-18T00:40:48;97798.69;;;3.68;100.00
47330;BME280;33060;50.178;7.570;2023-11-18T00:43:15;97798.28;;;4.08;100.00
47330;BME280;33060;50.178;7.570;2023-11-18T00:45:41;97803.91;;;3.96;100.00
47330;BME280;33060;50.178;7.570;2023-11-18T00:48:10;97801.97;;;4.29;100.00
47330;BME280;33060;50.178;7.570;2023-11-18T00:50:36;97801.97;;;4.29;100.00
47330;BME280;33060;50.178;7.570;2023-11-18T00:53:03;97788.91;;;4.29;100.00
47330;BME280;33060;50.178;7.570;2023-11-18T00:55:32;97797.13;;;3.62;100.00
47330;BME280;33060;50.178;7.570;2023-11-18T00:57:58;97801.06;;;4.04;100.00
47330;BME280;33060;50.178;7.570;2023-11-18T01:00:25;97789.53;;;3.55;100.00
47330;BME280;33060;50.178;7.570;2023-11-18T01:02:53;97782.97;;;3.97;100.00
47330;BME280;33060;50.178;7.570;2023-11-18T01:05:21;97783.69;;;4.03;100.00
47330;BME280;33060;50.178;7.570;2023-11-18T01:07:48;97785.03;;;3.88;100.00
47330;BME280;33060;50.178;7.570;2023-11-18T01:10:15;97789.25;;;4.45;100.00
47330;BME280;33060;50.178;7.570;2023-11-18T01:12:42;97784.72;;;4.75;100.00
47330;BME280;33060;50.178;7.570;2023-11-18T01:15:12;97784.91;;;4.69;100.00
47330;BME280;33060;50.178;7.570;2023-11-18T01:17:39;97783.00;;;4.74;100.00
47330;BME280;33060;50.178;7.570;2023-11-18T01:20:07;97781.81;;;5.07;100.00
47330;BME280;33060;50.178;7.570;2023-11-18T01:22:37;97783.38;;;5.13;100.00
47330;BME280;33060;50.178;7.570;2023-11-18T01:25:05;97792.41;;;4.79;100.00
47330;BME280;33060;50.178;7.570;2023-11-18T01:27:32;97787.34;;;5.23;100.00
47330;BME280;33060;50.178;7.570;2023-11-18T01:30:00;97792.41;;;5.04;100.00
47330;BME280;33060;50.178;7.570;2023-11-18T01:32:27;97792.22;;;5.09;100.00
47330;BME280;33060;50.178;7.570;2023-11-18T01:34:57;97787.75;;;5.13;100.00
47330;BME280;33060;50.178;7.570;2023-11-18T01:37:24;97782.28;;;5.42;100.00
47330;BME280;33060;50.178;7.570;2023-11-18T01:39:51;97797.72;;;5.01;100.00
47330;BME280;33060;50.178;7.570;2023-11-18T01:42:18;97791.91;;;4.93;100.00
47330;BME280;33060;50.178;7.570;2023-11-18T01:44:45;97791.63;;;5.01;100.00
47330;BME280;33060;50.178;7.570;2023-11-18T01:47:11;97795.75;;;5.08;100.00
47330;BME280;33060;50.178;7.570;2023-11-18T01:49:40;97794.84;;;4.84;100.00
47330;BME280;33060;50.178;7.570;2023-11-18T01:52:07;97793.50;;;5.21;100.00
47330;BME280;33060;50.178;7.570;2023-11-18T01:54:36;97788.91;;;5.27;100.00
47330;BME280;33060;50.178;7.570;2023-11-18T01:57:04;97785.72;;;5.43;100.00
47330;BME280;33060;50.178;7.570;2023-11-18T01:59:33;97780.16;;;5.52;100.00
47330;BME280;33060;50.178;7.570;2023-11-18T02:02:01;97786.72;;;5.62;100.00
47330;BME280;33060;50.178;7.570;2023-11-18T02:04:28;97786.44;;;5.70;100.00
47330;BME280;33060;50.178;7.570;2023-11-18T02:06:56;97797.41;;;5.79;100.00
47330;BME280;33060;50.178;7.570;2023-11-18T02:09:23;97795.13;;;5.70;100.00
47330;BME280;33060;50.178;7.570;2023-11-18T02:12:20;97797.69;;;5.72;100.00
47330;BME280;33060;50.178;7.570;2023-11-18T02:14:49;97793.88;;;5.80;100.00
47330;BME280;33060;50.178;7.570;2023-11-18T02:17:20;97795.56;;;5.59;100.00
47330;BME280;33060;50.178;7.570;2023-11-18T02:19:51;97802.22;;;5.45;100.00
47330;BME280;33060;50.178;7.570;2023-11-18T02:22:19;97801.25;;;4.75;100.00
47330;BME280;33060;50.178;7.570;2023-11-18T02:24:48;97797.50;;;5.07;100.00
47330;BME280;33060;50.178;7.570;2023-11-18T02:27:16;97802.22;;;4.73;100.00
47330;BME280;33060;50.178;7.570;2023-11-18T02:29:46;97805.84;;;4.44;100.00
47330;BME280;33060;50.178;7.570;2023-11-18T02:32:23;97803.28;;;4.67;100.00
47330;BME280;33060;50.178;7.570;2023-11-18T02:35:09;97803.38;;;5.14;100.00
47330;BME280;33060;50.178;7.570;2023-11-18T02:37:40;97807.78;;;5.35;100.00
47330;BME280;33060;50.178;7.570;2023-11-18T02:40:14;97799.44;;;4.77;100.00
47330;BME280;33060;50.178;7.570;2023-11-18T02:42:43;97799.84;;;5.15;100.00
47330;BME280;33060;50.178;7.570;2023-11-18T02:45:13;97786.06;;;5.57;100.00
47330;BME280;33060;50.178;7.570;2023-11-18T02:47:44;97787.16;;;5.73;100.00
47330;BME280;33060;50.178;7.570;2023-11-18T02:50:11;97786.44;;;5.70;100.00
47330;BME280;33060;50.178;7.570;2023-11-18T02:52:40;97781.03;;;5.74;100.00
47330;BME280;33060;50.178;7.570;2023-11-18T02:55:07;97778.66;;;5.68;100.00
47330;BME280;33060;50.178;7.570;2023-11-18T02:57:38;97776.75;;;5.72;100.00
47330;BME280;33060;50.178;7.570;2023-11-18T03:00:05;97769.53;;;5.78;100.00
47330;BME280;33060;50.178;7.570;2023-11-18T03:02:34;97784.19;;;5.60;100.00
47330;BME280;33060;50.178;7.570;2023-11-18T03:05:01;97779.94;;;5.58;100.00
47330;BME280;33060;50.178;7.570;2023-11-18T03:07:28;97773.66;;;5.62;100.00
47330;BME280;33060;50.178;7.570;2023-11-18T03:09:55;97775.13;;;5.46;100.00
47330;BME280;33060;50.178;7.570;2023-11-18T03:12:26;97770.81;;;5.45;100.00
47330;BME280;33060;50.178;7.570;2023-11-18T03:14:54;97768.56;;;5.12;100.00
47330;BME280;33060;50.178;7.570;2023-11-18T03:17:22;97769.59;;;5.31;100.00
47330;BME280;33060;50.178;7.570;2023-11-18T03:19:48;97783.13;;;5.19;100.00
47330;BME280;33060;50.178;7.570;2023-11-18T03:22:17;97779.50;;;5.23;100.00
47330;BME280;33060;50.178;7.570;2023-11-18T03:24:44;97773.28;;;5.49;100.00
47330;BME280;33060;50.178;7.570;2023-11-18T03:27:10;97779.56;;;5.67;100.00
47330;BME280;33060;50.178;7.570;2023-11-18T03:29:37;97782.03;;;5.48;100.00
47330;BME280;33060;50.178;7.570;2023-11-18T03:32:04;97797.44;;;5.09;100.00
47330;BME280;33060;50.178;7.570;2023-11-18T03:34:32;97790.63;;;5.52;100.00
47330;BME280;33060;50.178;7.570;2023-11-18T03:36:59;97789.78;;;5.73;100.00
47330;BME280;33060;50.178;7.570;2023-11-18T03:39:26;97789.78;;;5.51;100.00
47330;BME280;33060;50.178;7.570;2023-11-18T03:41:54;97787.22;;;5.26;100.00
47330;BME280;33060;50.178;7.570;2023-11-18T03:44:23;97784.97;;;5.62;100.00
47330;BME280;33060;50.178;7.570;2023-11-18T03:46:52;97792.31;;;5.29;100.00
47330;BME280;33060;50.178;7.570;2023-11-18T03:49:19;97793.19;;;5.06;100.00
47330;BME280;33060;50.178;7.570;2023-11-18T03:51:47;97779.16;;;5.54;100.00
47330;BME280;33060;50.178;7.570;2023-11-18T03:54:14;97777.94;;;5.18;100.00
47330;BME280;33060;50.178;7.570;2023-11-18T03:56:40;97771.41;;;5.06;100.00
47330;BME280;33060;50.178;7.570;2023-11-18T03:59:08;97772.66;;;5.19;100.00
47330;BME280;33060;50.178;7.570;2023-11-18T04:01:36;97760.16;;;5.27;100.00
47330;BME280;33060;50.178;7.570;2023-11-18T04:04:03;97760.50;;;5.18;100.00
47330;BME280;33060;50.178;7.570;2023-11-18T04:06:31;97751.94;;;5.60;100.00
47330;BME280;33060;50.178;7.570;2023-11-18T04:08:58;97749.06;;;5.88;100.00
47330;BME280;33060;50.178;7.570;2023-11-18T04:11:25;97750.19;;;6.04;100.00
47330;BME280;33060;50.178;7.570;2023-11-18T04:13:52;97749.50;;;6.21;100.00
47330;BME280;33060;50.178;7.570;2023-11-18T04:16:19;97747.19;;;6.13;100.00
47330;BME280;33060;50.178;7.570;2023-11-18T04:18:46;97748.94;;;6.13;100.00
47330;BME280;33060;50.178;7.570;2023-11-18T04:21:13;97760.78;;;5.10;100.00
47330;BME280;33060;50.178;7.570;2023-11-18T04:23:40;97759.69;;;5.16;100.00
47330;BME280;33060;50.178;7.570;2023-11-18T04:26:08;97765.50;;;5.48;100.00
47330;BME280;33060;50.178;7.570;2023-11-18T04:28:36;97770.78;;;5.23;100.00
47330;BME280;33060;50.178;7.570;2023-11-18T04:31:03;97769.44;;;5.13;100.00
47330;BME280;33060;50.178;7.570;2023-11-18T04:33:32;97754.00;;;5.28;100.00
47330;BME280;33060;50.178;7.570;2023-11-18T04:35:59;97755.97;;;5.45;100.00
47330;BME280;33060;50.178;7.570;2023-11-18T04:38:26;97755.31;;;5.62;100.00
47330;BME280;33060;50.178;7.570;2023-11-18T04:40:54;97756.63;;;5.74;100.00
47330;BME280;33060;50.178;7.570;2023-11-18T04:43:21;97756.78;;;5.92;100.00
47330;BME280;33060;50.178;7.570;2023-11-18T04:46:08;97781.63;;;5.59;100.00
47330;BME280;33060;50.178;7.570;2023-11-18T04:48:35;97766.97;;;5.99;100.00
47330;BME280;33060;50.178;7.570;2023-11-18T04:51:07;97750.25;;;6.03;100.00
47330;BME280;33060;50.178;7.570;2023-11-18T04:53:33;97755.34;;;5.84;100.00
47330;BME280;33060;50.178;7.570;2023-11-18T04:56:01;97773.00;;;5.57;100.00
47330;BME280;33060;50.178;7.570;2023-11-18T04:58:28;97754.88;;;5.74;100.00
47330;BME280;33060;50.178;7.570;2023-11-18T05:00:55;97753.19;;;5.72;100.00
47330;BME280;33060;50.178;7.570;2023-11-18T05:03:21;97745.97;;;5.78;100.00
47330;BME280;33060;50.178;7.570;2023-11-18T05:05:50;97745.81;;;5.81;100.00
47330;BME280;33060;50.178;7.570;2023-11-18T05:08:20;97750.72;;;5.68;100.00
47330;BME280;33060;50.178;7.570;2023-11-18T05:10:48;97741.56;;;5.79;100.00
47330;BME280;33060;50.178;7.570;2023-11-18T05:13:17;97734.47;;;6.04;100.00
47330;BME280;33060;50.178;7.570;2023-11-18T05:15:44;97738.78;;;6.05;100.00
47330;BME280;33060;50.178;7.570;2023-11-18T05:18:15;97731.41;;;6.15;100.00
47330;BME280;33060;50.178;7.570;2023-11-18T05:20:43;97729.84;;;6.11;100.00
47330;BME280;33060;50.178;7.570;2023-11-18T05:23:11;97724.78;;;5.84;100.00
47330;BME280;33060;50.178;7.570;2023-11-18T05:25:42;97711.03;;;6.21;100.00
47330;BME280;33060;50.178;7.570;2023-11-18T05:28:12;97710.50;;;6.34;100.00
47330;BME280;33060;50.178;7.570;2023-11-18T05:30:41;97707.75;;;6.16;100.00
47330;BME280;33060;50.178;7.570;2023-11-18T05:33:09;97702.34;;;6.21;100.00
47330;BME280;33060;50.178;7.570;2023-11-18T05:35:41;97707.75;;;6.16;100.00
47330;BME280;33060;50.178;7.570;2023-11-18T05:38:16;97698.28;;;6.14;100.00
47330;BME280;33060;50.178;7.570;2023-11-18T05:40:45;97697.47;;;6.32;100.00
47330;BME280;33060;50.178;7.570;2023-11-18T05:43:28;97700.78;;;6.17;100.00
47330;BME280;33060;50.178;7.570;2023-11-18T05:46:18;97701.25;;;6.27;100.00
47330;BME280;33060;50.178;7.570;2023-11-18T05:48:48;97697.72;;;6.06;100.00
47330;BME280;33060;50.178;7.570;2023-11-18T05:51:20;97700.25;;;6.09;100.00
47330;BME280;33060;50.178;7.570;2023-11-18T05:53:47;97696.44;;;6.16;100.00
47330;BME280;33060;50.178;7.570;2023-11-18T05:56:14;97707.19;;;6.10;100.00
47330;BME280;33060;50.178;7.570;2023-11-18T05:58:45;97705.19;;;5.94;100.00
47330;BME280;33060;50.178;7.570;2023-11-18T06:01:12;97702.38;;;5.99;100.00
47330;BME280;33060;50.178;7.570;2023-11-18T06:03:43;97693.28;;;5.65;100.00
47330;BME280;33060;50.178;7.570;2023-11-18T06:06:11;97696.41;;;5.52;100.00
47330;BME280;33060;50.178;7.570;2023-11-18T06:08:39;97685.78;;;6.00;100.00
47330;BME280;33060;50.178;7.570;2023-11-18T06:11:11;97686.53;;;5.80;100.00
47330;BME280;33060;50.178;7.570;2023-11-18T06:13:47;97677.72;;;6.05;100.00
47330;BME280;33060;50.178;7.570;2023-11-18T06:18:42;97675.97;;;6.26;100.00
47330;BME280;33060;50.178;7.570;2023-11-18T06:21:12;97666.63;;;6.39;100.00
47330;BME280;33060;50.178;7.570;2023-11-18T06:23:38;97661.75;;;6.11;100.00
47330;BME280;33060;50.178;7.570;2023-11-18T06:26:05;97664.28;;;6.12;100.00
47330;BME280;33060;50.178;7.570;2023-11-18T06:28:32;97668.22;;;6.43;100.00
47330;BME280;33060;50.178;7.570;2023-11-18T06:31:00;97668.41;;;6.38;100.00
47330;BME280;33060;50.178;7.570;2023-11-18T06:33:27;97683.59;;;6.30;100.00
47330;BME280;33060;50.178;7.570;2023-11-18T06:35:54;97686.16;;;6.32;100.00
47330;BME280;33060;50.178;7.570;2023-11-18T06:38:23;97688.84;;;6.50;100.00
47330;BME280;33060;50.178;7.570;2023-11-18T06:40:51;97695.19;;;6.65;100.00
47330;BME280;33060;50.178;7.570;2023-11-18T06:43:19;97696.75;;;6.49;100.00
47330;BME280;33060;50.178;7.570;2023-11-18T06:45:46;97693.16;;;6.31;100.00
47330;BME280;33060;50.178;7.570;2023-11-18T06:48:15;97692.53;;;6.26;100.00
47330;BME280;33060;50.178;7.570;2023-11-18T06:50:41;97679.00;;;6.56;100.00
47330;BME280;33060;50.178;7.570;2023-11-18T06:53:10;97675.16;;;6.23;100.00
47330;BME280;33060;50.178;7.570;2023-11-18T06:55:38;97676.13;;;6.41;100.00
47330;BME280;33060;50.178;7.570;2023-11-18T06:58:04;97675.03;;;6.47;100.00
47330;BME280;33060;50.178;7.570;2023-11-18T07:00:31;97659.31;;;6.47;100.00
47330;BME280;33060;50.178;7.570;2023-11-18T07:02:59;97664.94;;;6.38;100.00
47330;BME280;33060;50.178;7.570;2023-11-18T07:05:27;97662.94;;;6.63;100.00
47330;BME280;33060;50.178;7.570;2023-11-18T07:07:55;97674.66;;;6.36;100.00
47330;BME280;33060;50.178;7.570;2023-11-18T07:10:22;97671.56;;;6.46;100.00
47330;BME280;33060;50.178;7.570;2023-11-18T07:12:49;97669.81;;;6.66;100.00
47330;BME280;33060;50.178;7.570;2023-11-18T07:15:15;97679.09;;;6.54;100.00
47330;BME280;33060;50.178;7.570;2023-11-18T07:17:42;97689.00;;;6.87;100.00
47330;BME280;33060;50.178;7.570;2023-11-18T07:20:09;97705.06;;;6.79;100.00
47330;BME280;33060;50.178;7.570;2023-11-18T07:22:39;97694.66;;;6.96;100.00
47330;BME280;33060;50.178;7.570;2023-11-18T07:25:07;97682.59;;;6.73;100.00
47330;BME280;33060;50.178;7.570;2023-11-18T07:27:36;97692.41;;;6.89;100.00
47330;BME280;33060;50.178;7.570;2023-11-18T07:30:03;97706.00;;;6.78;100.00
47330;BME280;33060;50.178;7.570;2023-11-18T07:32:37;97698.81;;;6.82;100.00
47330;BME280;33060;50.178;7.570;2023-11-18T07:35:06;97701.28;;;6.66;100.00
47330;BME280;33060;50.178;7.570;2023-11-18T07:37:35;97698.56;;;7.06;100.00
47330;BME280;33060;50.178;7.570;2023-11-18T07:40:04;97696.94;;;7.23;100.00
47330;BME280;33060;50.178;7.570;2023-11-18T07:42:32;97703.31;;;6.98;100.00
47330;BME280;33060;50.178;7.570;2023-11-18T07:45:01;97714.25;;;7.08;100.00
47330;BME280;33060;50.178;7.570;2023-11-18T07:47:31;97714.06;;;6.92;100.00
47330;BME280;33060;50.178;7.570;2023-11-18T07:50:00;97706.72;;;7.00;100.00
47330;BME280;33060;50.178;7.570;2023-11-18T07:52:31;97712.47;;;7.27;100.00
47330;BME280;33060;50.178;7.570;2023-11-18T07:54:57;97707.56;;;7.20;100.00
47330;BME280;33060;50.178;7.570;2023-11-18T07:57:24;97704.91;;;7.21;100.00
47330;BME280;33060;50.178;7.570;2023-11-18T07:59:53;97713.97;;;7.33;100.00
47330;BME280;33060;50.178;7.570;2023-11-18T08:02:20;97708.56;;;7.36;100.00
47330;BME280;33060;50.178;7.570;2023-11-18T08:04:47;97709.09;;;7.61;100.00
47330;BME280;33060;50.178;7.570;2023-11-18T08:07:13;97704.88;;;7.40;100.00
47330;BME280;33060;50.178;7.570;2023-11-18T08:09:40;97700.47;;;7.59;100.00
47330;BME280;33060;50.178;7.570;2023-11-18T08:12:08;97693.63;;;7.55;100.00
47330;BME280;33060;50.178;7.570;2023-11-18T08:14:35;97684.25;;;7.32;100.00
47330;BME280;33060;50.178;7.570;2023-11-18T08:17:02;97677.84;;;7.57;100.00
47330;BME280;33060;50.178;7.570;2023-11-18T08:19:31;97663.03;;;7.37;100.00
47330;BME280;33060;50.178;7.570;2023-11-18T08:21:57;97669.03;;;7.58;100.00
47330;BME280;33060;50.178;7.570;2023-11-18T08:24:26;97679.03;;;7.86;100.00
47330;BME280;33060;50.178;7.570;2023-11-18T08:26:53;97680.81;;;7.49;100.00
47330;BME280;33060;50.178;7.570;2023-11-18T08:29:20;97672.47;;;7.77;100.00
47330;BME280;33060;50.178;7.570;2023-11-18T08:31:48;97666.66;;;7.71;100.00
47330;BME280;33060;50.178;7.570;2023-11-18T08:34:14;97669.44;;;7.68;100.00
47330;BME280;33060;50.178;7.570;2023-11-18T08:36:41;97663.00;;;8.09;100.00
47330;BME280;33060;50.178;7.570;2023-11-18T08:39:10;97659.34;;;8.12;100.00
47330;BME280;33060;50.178;7.570;2023-11-18T08:41:38;97664.22;;;8.02;100.00
47330;BME280;33060;50.178;7.570;2023-11-18T08:44:05;97672.41;;;7.96;100.00
47330;BME280;33060;50.178;7.570;2023-11-18T08:46:47;97672.56;;;7.93;100.00
47330;BME280;33060;50.178;7.570;2023-11-18T08:49:14;97671.78;;;7.55;100.00
47330;BME280;33060;50.178;7.570;2023-11-18T08:51:42;97680.47;;;8.10;100.00
47330;BME280;33060;50.178;7.570;2023-11-18T08:54:09;97677.94;;;7.73;100.00
47330;BME280;33060;50.178;7.570;2023-11-18T08:56:52;97681.97;;;7.80;100.00
47330;BME280;33060;50.178;7.570;2023-11-18T08:59:19;97678.59;;;7.59;100.00
47330;BME280;33060;50.178;7.570;2023-11-18T09:01:51;97681.84;;;7.64;100.00
47330;BME280;33060;50.178;7.570;2023-11-18T09:04:23;97681.28;;;7.93;100.00
47330;BME280;33060;50.178;7.570;2023-11-18T09:06:50;97676.50;;;7.84;100.00
47330;BME280;33060;50.178;7.570;2023-11-18T09:09:26;97683.06;;;7.93;100.00
47330;BME280;33060;50.178;7.570;2023-11-18T09:11:55;97675.28;;;7.91;100.00
47330;BME280;33060;50.178;7.570;2023-11-18T09:14:25;97680.81;;;7.85;100.00
47330;BME280;33060;50.178;7.570;2023-11-18T09:16:53;97685.38;;;7.82;100.00
47330;BME280;33060;50.178;7.570;2023-11-18T09:19:25;97677.50;;;7.82;100.00
47330;BME280;33060;50.178;7.570;2023-11-18T09:21:52;97682.91;;;7.96;100.00
47330;BME280;33060;50.178;7.570;2023-11-18T09:24:18;97677.84;;;8.10;100.00
47330;BME280;33060;50.178;7.570;2023-11-18T09:26:51;97674.09;;;7.97;100.00
47330;BME280;33060;50.178;7.570;2023-11-18T09:29:18;97679.19;;;7.83;100.00
47330;BME280;33060;50.178;7.570;2023-11-18T09:31:48;97674.47;;;8.07;100.00
47330;BME280;33060;50.178;7.570;2023-11-18T09:34:15;97671.81;;;8.08;100.00
47330;BME280;33060;50.178;7.570;2023-11-18T09:36:43;97676.34;;;7.87;100.00
47330;BME280;33060;50.178;7.570;2023-11-18T09:39:10;97675.34;;;8.59;100.00
47330;BME280;33060;50.178;7.570;2023-11-18T09:41:56;97678.97;;;8.22;100.00
47330;BME280;33060;50.178;7.570;2023-11-18T09:44:23;97682.31;;;8.08;100.00
47330;BME280;33060;50.178;7.570;2023-11-18T09:46:57;97685.09;;;8.57;100.00
47330;BME280;33060;50.178;7.570;2023-11-18T09:49:42;97685.66;;;8.46;100.00
47330;BME280;33060;50.178;7.570;2023-11-18T09:52:15;97677.50;;;8.34;100.00
47330;BME280;33060;50.178;7.570;2023-11-18T09:55:02;97679.25;;;9.01;100.00
47330;BME280;33060;50.178;7.570;2023-11-18T09:57:35;97678.41;;;8.67;100.00
47330;BME280;33060;50.178;7.570;2023-11-18T10:00:11;97671.97;;;9.06;100.00
47330;BME280;33060;50.178;7.570;2023-11-18T10:02:54;97681.00;;;8.85;100.00
47330;BME280;33060;50.178;7.570;2023-11-18T10:05:22;97680.25;;;8.83;100.00
47330;BME280;33060;50.178;7.570;2023-11-18T10:07:53;97672.13;;;9.03;100.00
47330;BME280;33060;50.178;7.570;2023-11-18T10:10:20;97671.38;;;9.17;100.00
47330;BME280;33060;50.178;7.570;2023-11-18T10:12:49;97664.47;;;8.83;100.00
47330;BME280;33060;50.178;7.570;2023-11-18T10:15:21;97661.78;;;8.67;100.00
47330;BME280;33060;50.178;7.570;2023-11-18T10:17:52;97675.16;;;8.80;100.00
47330;BME280;33060;50.178;7.570;2023-11-18T10:20:43;97651.28;;;8.67;100.00
47330;BME280;33060;50.178;7.570;2023-11-18T10:23:12;97657.41;;;8.50;100.00
47330;BME280;33060;50.178;7.570;2023-11-18T10:25:56;97655.38;;;8.72;100.00
47330;BME280;33060;50.178;7.570;2023-11-18T10:28:28;97652.19;;;8.66;100.00
47330;BME280;33060;50.178;7.570;2023-11-18T10:30:56;97653.34;;;8.77;100.00
47330;BME280;33060;50.178;7.570;2023-11-18T10:33:37;97651.56;;;8.78;100.00
47330;BME280;33060;50.178;7.570;2023-11-18T10:36:05;97646.13;;;8.81;100.00
47330;BME280;33060;50.178;7.570;2023-11-18T10:38:39;97641.00;;;8.95;100.00
47330;BME280;33060;50.178;7.570;2023-11-18T10:41:18;97630.81;;;9.05;100.00
47330;BME280;33060;50.178;7.570;2023-11-18T10:43:45;97628.53;;;9.15;100.00
47330;BME280;33060;50.178;7.570;2023-11-18T10:46:15;97627.56;;;8.51;100.00
47330;BME280;33060;50.178;7.570;2023-11-18T10:48:50;97619.03;;;8.63;100.00
47330;BME280;33060;50.178;7.570;2023-11-18T10:51:17;97608.97;;;8.87;100.00
47330;BME280;33060;50.178;7.570;2023-11-18T10:53:53;97610.75;;;8.71;100.00
47330;BME280;33060;50.178;7.570;2023-11-18T10:56:23;97608.59;;;8.62;100.00
47330;BME280;33060;50.178;7.570;2023-11-18T10:58:57;97602.72;;;9.05;100.00
47330;BME280;33060;50.178;7.570;2023-11-18T11:01:31;97608.91;;;8.89;100.00
47330;BME280;33060;50.178;7.570;2023-11-18T11:03:58;97594.03;;;8.88;100.00
47330;BME280;33060;50.178;7.570;2023-11-18T11:06:29;97590.81;;;9.30;100.00
47330;BME280;33060;50.178;7.570;2023-11-18T11:08:57;97583.53;;;9.03;100.00
47330;BME280;33060;50.178;7.570;2023-11-18T11:11:28;97588.34;;;9.11;100.00
47330;BME280;33060;50.178;7.570;2023-11-18T11:14:03;97588.84;;;9.02;100.00
47330;BME280;33060;50.178;7.570;2023-11-18T11:16:54;97594.34;;;8.66;100.00
47330;BME280;33060;50.178;7.570;2023-11-18T11:19:26;97585.88;;;8.76;100.00
47330;BME280;33060;50.178;7.570;2023-11-18T11:22:04;97570.19;;;8.91;100.00
47330;BME280;33060;50.178;7.570;2023-11-18T11:27:22;97563.91;;;9.09;100.00
47330;BME280;33060;50.178;7.570;2023-11-18T11:30:20;97556.44;;;9.01;100.00
47330;BME280;33060;50.178;7.570;2023-11-18T11:32:52;97567.06;;;9.00;100.00
47330;BME280;33060;50.178;7.570;2023-11-18T11:35:23;97564.75;;;8.94;100.00
47330;BME280;33060;50.178;7.570;2023-11-18T11:37:52;97562.88;;;8.64;100.00
47330;BME280;33060;50.178;7.570;2023-11-18T11:40:21;97555.06;;;8.94;100.00
47330;BME280;33060;50.178;7.570;2023-11-18T11:42:50;97544.56;;;8.63;100.00
47330;BME280;33060;50.178;7.570;2023-11-18T11:45:23;97537.53;;;8.79;100.00
47330;BME280;33060;50.178;7.570;2023-11-18T11:47:56;97534.91;;;8.79;100.00
47330;BME280;33060;50.178;7.570;2023-11-18T11:54:17;97539.38;;;8.77;100.00
47330;BME280;33060;50.178;7.570;2023-11-18T11:56:49;97544.47;;;8.80;100.00
47330;BME280;33060;50.178;7.570;2023-11-18T11:59:35;97537.69;;;8.92;100.00
47330;BME280;33060;50.178;7.570;2023-11-18T12:02:04;97535.84;;;8.78;100.00
47330;BME280;33060;50.178;7.570;2023-11-18T12:04:35;97531.81;;;9.02;100.00
47330;BME280;33060;50.178;7.570;2023-11-18T12:07:08;97524.38;;;8.95;100.00
47330;BME280;33060;50.178;7.570;2023-11-18T12:09:57;97520.00;;;9.25;100.00
47330;BME280;33060;50.178;7.570;2023-11-18T12:12:25;97517.47;;;9.08;100.00
47330;BME280;33060;50.178;7.570;2023-11-18T12:14:54;97508.41;;;8.66;100.00
47330;BME280;33060;50.178;7.570;2023-11-18T12:20:43;97507.47;;;8.67;100.00
47330;BME280;33060;50.178;7.570;2023-11-18T12:23:24;97507.03;;;8.59;100.00
47330;BME280;33060;50.178;7.570;2023-11-18T12:25:52;97490.72;;;9.16;100.00
47330;BME280;33060;50.178;7.570;2023-11-18T12:28:28;97485.38;;;9.17;100.00
47330;BME280;33060;50.178;7.570;2023-11-18T12:30:57;97474.41;;;8.79;100.00
47330;BME280;33060;50.178;7.570;2023-11-18T12:33:27;97475.50;;;9.51;100.00
47330;BME280;33060;50.178;7.570;2023-11-18T12:42:01;97455.25;;;9.07;100.00
47330;BME280;33060;50.178;7.570;2023-11-18T12:44:37;97433.63;;;9.32;100.00
47330;BME280;33060;50.178;7.570;2023-11-18T12:47:06;97412.84;;;8.97;100.00
47330;BME280;33060;50.178;7.570;2023-11-18T12:49:48;97415.72;;;8.93;100.00
47330;BME280;33060;50.178;7.570;2023-11-18T12:52:22;97412.88;;;8.82;100.00
47330;BME280;33060;50.178;7.570;2023-11-18T12:54:50;97395.69;;;9.20;100.00
47330;BME280;33060;50.178;7.570;2023-11-18T12:57:27;97389.53;;;8.75;100.00
47330;BME280;33060;50.178;7.570;2023-11-18T12:59:59;97375.81;;;8.86;100.00
47330;BME280;33060;50.178;7.570;2023-11-18T13:02:27;97383.84;;;8.83;100.00
47330;BME280;33060;50.178;7.570;2023-11-18T13:04:55;97383.31;;;8.92;100.00
47330;BME280;33060;50.178;7.570;2023-11-18T13:07:22;97387.69;;;9.07;100.00
47330;BME280;33060;50.178;7.570;2023-11-18T13:09:51;97381.97;;;9.15;100.00
47330;BME280;33060;50.178;7.570;2023-11-18T13:12:21;97378.69;;;8.82;100.00
47330;BME280;33060;50.178;7.570;2023-11-18T13:14:50;97369.66;;;8.86;100.00
47330;BME280;33060;50.178;7.570;2023-11-18T13:17:18;97361.88;;;8.84;100.00
47330;BME280;33060;50.178;7.570;2023-11-18T13:19:45;97346.91;;;8.70;100.00
47330;BME280;33060;50.178;7.570;2023-11-18T13:22:14;97348.50;;;8.73;100.00
47330;BME280;33060;50.178;7.570;2023-11-18T13:24:42;97353.75;;;8.43;100.00
47330;BME280;33060;50.178;7.570;2023-11-18T13:27:16;97362.63;;;8.56;100.00
47330;BME280;33060;50.178;7.570;2023-11-18T13:29:49;97369.03;;;8.66;100.00
47330;BME280;33060;50.178;7.570;2023-11-18T13:32:18;97370.59;;;8.55;100.00